sensor_id;sensor_type;location;lat;lon;timestamp;P1;durP1;ratioP1;P2;durP2;ratioP2
25948;SDS011;13961;51.178;4.448;2024-01-30T00:01:22;13.13;;;7.90;;
25948;SDS011;13961;51.178;4.448;2024-01-30T00:03:47;12.35;;;7.88;;
25948;SDS011;13961;51.178;4.448;2024-01-30T00:06:13;12.27;;;7.78;;
25948;SDS011;13961;51.178;4.448;2024-01-30T00:08:39;12.30;;;7.80;;
25948;SDS011;13961;51.178;4.448;2024-01-30T00:11:05;15.57;;;7.75;;
25948;SDS011;13961;51.178;4.448;2024-01-30T00:13:32;12.93;;;8.07;;
25948;SDS011;13961;51.178;4.448;2024-01-30T00:15:58;12.45;;;8.20;;
25948;SDS011;13961;51.178;4.448;2024-01-30T00:18:23;12.43;;;7.85;;
25948;SDS011;13961;51.178;4.448;2024-01-30T00:20:49;12.13;;;7.38;;
25948;SDS011;13961;51.178;4.448;2024-01-30T00:23:14;11.07;;;7.38;;
25948;SDS011;13961;51.178;4.448;2024-01-30T00:25:40;9.13;;;7.15;;
25948;SDS011;13961;51.178;4.448;2024-01-30T00:28:06;10.68;;;7.50;;
25948;SDS011;13961;51.178;4.448;2024-01-30T00:30:31;11.70;;;7.32;;
25948;SDS011;13961;51.178;4.448;2024-01-30T00:32:57;10.63;;;7.25;;
25948;SDS011;13961;51.178;4.448;2024-01-30T00:35:23;11.30;;;7.25;;
25948;SDS011;13961;51.178;4.448;2024-01-30T00:37:48;10.60;;;7.13;;
25948;SDS011;13961;51.178;4.448;2024-01-30T00:40:14;11.25;;;7.00;;
25948;SDS011;13961;51.178;4.448;2024-01-30T00:42:43;13.80;;;6.90;;
25948;SDS011;13961;51.178;4.448;2024-01-30T00:45:16;15.80;;;7.60;;
25948;SDS011;13961;51.178;4.448;2024-01-30T00:47:42;10.35;;;6.60;;
25948;SDS011;13961;51.178;4.448;2024-01-30T00:50:08;9.43;;;6.85;;
25948;SDS011;13961;51.178;4.448;2024-01-30T00:52:34;12.85;;;7.07;;
25948;SDS011;13961;51.178;4.448;2024-01-30T00:55:00;12.38;;;6.55;;
25948;SDS011;13961;51.178;4.448;2024-01-30T00:57:26;11.40;;;7.30;;
25948;SDS011;13961;51.178;4.448;2024-01-30T00:59:52;9.70;;;6.85;;
25948;SDS011;13961;51.178;4.448;2024-01-30T01:02:17;9.77;;;6.70;;
25948;SDS011;13961;51.178;4.448;2024-01-30T01:04:43;13.98;;;7.30;;
25948;SDS011;13961;51.178;4.448;2024-01-30T01:07:10;12.90;;;7.13;;
25948;SDS011;13961;51.178;4.448;2024-01-30T01:09:36;10.30;;;6.97;;
25948;SDS011;13961;51.178;4.448;2024-01-30T01:12:02;11.18;;;7.53;;
25948;SDS011;13961;51.178;4.448;2024-01-30T01:14:29;13.45;;;7.60;;
25948;SDS011;13961;51.178;4.448;2024-01-30T01:16:55;12.70;;;7.32;;
25948;SDS011;13961;51.178;4.448;2024-01-30T01:19:21;13.93;;;7.28;;
25948;SDS011;13961;51.178;4.448;2024-01-30T01:21:47;13.38;;;6.90;;
25948;SDS011;13961;51.178;4.448;2024-01-30T01:24:13;15.00;;;7.40;;
25948;SDS011;13961;51.178;4.448;2024-01-30T01:26:39;10.40;;;7.38;;
25948;SDS011;13961;51.178;4.448;2024-01-30T01:29:05;11.85;;;7.32;;
25948;SDS011;13961;51.178;4.448;2024-01-30T01:31:37;10.73;;;7.22;;
25948;SDS011;13961;51.178;4.448;2024-01-30T01:34:10;11.65;;;7.00;;
25948;SDS011;13961;51.178;4.448;2024-01-30T01:36:37;12.80;;;7.28;;
25948;SDS011;13961;51.178;4.448;2024-01-30T01:39:02;12.50;;;7.68;;
25948;SDS011;13961;51.178;4.448;2024-01-30T01:41:32;9.73;;;7.05;;
25948;SDS011;13961;51.178;4.448;2024-01-30T01:43:58;13.25;;;7.22;;
25948;SDS011;13961;51.178;4.448;2024-01-30T01:46:27;11.40;;;7.32;;
25948;SDS011;13961;51.178;4.448;2024-01-30T01:48:56;14.33;;;7.97;;
25948;SDS011;13961;51.178;4.448;2024-01-30T01:51:23;13.73;;;7.40;;
25948;SDS011;13961;51.178;4.448;2024-01-30T01:53:52;12.05;;;7.50;;
25948;SDS011;13961;51.178;4.448;2024-01-30T01:56:18;14.02;;;7.40;;
25948;SDS011;13961;51.178;4.448;2024-01-30T01:58:44;15.32;;;7.88;;
25948;SDS011;13961;51.178;4.448;2024-01-30T02:01:12;13.70;;;7.38;;
25948;SDS011;13961;51.178;4.448;2024-01-30T02:03:39;12.35;;;7.63;;
25948;SDS011;13961;51.178;4.448;2024-01-30T02:06:06;11.45;;;7.57;;
25948;SDS011;13961;51.178;4.448;2024-01-30T02:08:31;12.50;;;8.00;;
25948;SDS011;13961;51.178;4.448;2024-01-30T02:10:58;18.40;;;7.40;;
25948;SDS011;13961;51.178;4.448;2024-01-30T02:13:25;14.55;;;7.68;;
25948;SDS011;13961;51.178;4.448;2024-01-30T02:15:51;12.13;;;7.75;;
25948;SDS011;13961;51.178;4.448;2024-01-30T02:18:16;12.93;;;7.15;;
25948;SDS011;13961;51.178;4.448;2024-01-30T02:20:42;13.98;;;7.93;;
25948;SDS011;13961;51.178;4.448;2024-01-30T02:23:09;11.23;;;7.63;;
25948;SDS011;13961;51.178;4.448;2024-01-30T02:25:39;11.40;;;7.80;;
25948;SDS011;13961;51.178;4.448;2024-01-30T02:28:12;13.52;;;8.20;;
25948;SDS011;13961;51.178;4.448;2024-01-30T02:30:39;11.70;;;7.38;;
25948;SDS011;13961;51.178;4.448;2024-01-30T02:33:05;13.60;;;7.60;;
25948;SDS011;13961;51.178;4.448;2024-01-30T02:35:31;13.82;;;7.90;;
25948;SDS011;13961;51.178;4.448;2024-01-30T02:37:56;13.40;;;8.13;;
25948;SDS011;13961;51.178;4.448;2024-01-30T02:40:22;11.63;;;8.00;;
25948;SDS011;13961;51.178;4.448;2024-01-30T02:42:47;14.15;;;8.15;;
25948;SDS011;13961;51.178;4.448;2024-01-30T02:45:13;14.02;;;8.23;;
25948;SDS011;13961;51.178;4.448;2024-01-30T02:47:39;12.10;;;7.45;;
25948;SDS011;13961;51.178;4.448;2024-01-30T02:50:05;15.15;;;8.00;;
25948;SDS011;13961;51.178;4.448;2024-01-30T02:52:31;14.40;;;8.05;;
25948;SDS011;13961;51.178;4.448;2024-01-30T02:54:57;14.50;;;8.10;;
25948;SDS011;13961;51.178;4.448;2024-01-30T02:57:23;15.02;;;7.78;;
25948;SDS011;13961;51.178;4.448;2024-01-30T02:59:48;14.60;;;7.68;;
25948;SDS011;13961;51.178;4.448;2024-01-30T03:02:14;12.13;;;7.80;;
25948;SDS011;13961;51.178;4.448;2024-01-30T03:04:43;14.18;;;8.02;;
25948;SDS011;13961;51.178;4.448;2024-01-30T03:07:08;14.35;;;8.10;;
25948;SDS011;13961;51.178;4.448;2024-01-30T03:09:36;14.27;;;7.82;;
25948;SDS011;13961;51.178;4.448;2024-01-30T03:12:02;12.80;;;7.75;;
25948;SDS011;13961;51.178;4.448;2024-01-30T03:14:30;12.90;;;7.85;;
25948;SDS011;13961;51.178;4.448;2024-01-30T03:16:57;16.23;;;8.02;;
25948;SDS011;13961;51.178;4.448;2024-01-30T03:19:22;14.07;;;7.60;;
25948;SDS011;13961;51.178;4.448;2024-01-30T03:21:48;13.88;;;7.88;;
25948;SDS011;13961;51.178;4.448;2024-01-30T03:24:14;14.63;;;7.63;;
25948;SDS011;13961;51.178;4.448;2024-01-30T03:26:40;11.90;;;7.10;;
25948;SDS011;13961;51.178;4.448;2024-01-30T03:29:05;14.40;;;7.65;;
25948;SDS011;13961;51.178;4.448;2024-01-30T03:31:31;13.63;;;7.65;;
25948;SDS011;13961;51.178;4.448;2024-01-30T03:33:57;13.43;;;7.43;;
25948;SDS011;13961;51.178;4.448;2024-01-30T03:36:23;11.07;;;7.20;;
25948;SDS011;13961;51.178;4.448;2024-01-30T03:38:48;11.60;;;7.60;;
25948;SDS011;13961;51.178;4.448;2024-01-30T03:41:14;11.25;;;7.60;;
25948;SDS011;13961;51.178;4.448;2024-01-30T03:43:40;12.57;;;7.30;;
25948;SDS011;13961;51.178;4.448;2024-01-30T03:46:06;16.02;;;7.70;;
25948;SDS011;13961;51.178;4.448;2024-01-30T03:48:31;12.80;;;7.40;;
25948;SDS011;13961;51.178;4.448;2024-01-30T03:50:57;12.65;;;7.68;;
25948;SDS011;13961;51.178;4.448;2024-01-30T03:53:23;13.93;;;7.25;;
25948;SDS011;13961;51.178;4.448;2024-01-30T03:55:49;14.48;;;7.30;;
25948;SDS011;13961;51.178;4.448;2024-01-30T03:58:14;11.27;;;7.22;;
25948;SDS011;13961;51.178;4.448;2024-01-30T04:00:40;13.77;;;7.63;;
25948;SDS011;13961;51.178;4.448;2024-01-30T04:03:06;13.48;;;7.38;;
25948;SDS011;13961;51.178;4.448;2024-01-30T04:05:32;13.85;;;7.53;;
25948;SDS011;13961;51.178;4.448;2024-01-30T04:07:59;13.57;;;7.20;;
25948;SDS011;13961;51.178;4.448;2024-01-30T04:10:24;12.70;;;6.57;;
25948;SDS011;13961;51.178;4.448;2024-01-30T04:12:50;14.40;;;7.40;;
25948;SDS011;13961;51.178;4.448;2024-01-30T04:15:19;14.80;;;6.95;;
25948;SDS011;13961;51.178;4.448;2024-01-30T04:17:45;15.88;;;7.10;;
25948;SDS011;13961;51.178;4.448;2024-01-30T04:20:16;12.90;;;7.47;;
25948;SDS011;13961;51.178;4.448;2024-01-30T04:22:45;15.45;;;7.60;;
25948;SDS011;13961;51.178;4.448;2024-01-30T04:25:12;14.15;;;7.43;;
25948;SDS011;13961;51.178;4.448;2024-01-30T04:27:38;11.30;;;7.25;;
25948;SDS011;13961;51.178;4.448;2024-01-30T04:30:04;15.80;;;7.38;;
25948;SDS011;13961;51.178;4.448;2024-01-30T04:32:31;12.27;;;7.22;;
25948;SDS011;13961;51.178;4.448;2024-01-30T04:34:57;12.43;;;7.40;;
25948;SDS011;13961;51.178;4.448;2024-01-30T04:37:23;15.10;;;7.15;;
25948;SDS011;13961;51.178;4.448;2024-01-30T04:39:48;13.45;;;7.20;;
25948;SDS011;13961;51.178;4.448;2024-01-30T04:42:14;11.52;;;7.07;;
25948;SDS011;13961;51.178;4.448;2024-01-30T04:44:40;12.60;;;7.00;;
25948;SDS011;13961;51.178;4.448;2024-01-30T04:47:05;12.70;;;6.95;;
25948;SDS011;13961;51.178;4.448;2024-01-30T04:49:33;11.63;;;7.25;;
25948;SDS011;13961;51.178;4.448;2024-01-30T04:51:59;12.10;;;6.78;;
25948;SDS011;13961;51.178;4.448;2024-01-30T04:54:25;14.27;;;7.45;;
25948;SDS011;13961;51.178;4.448;2024-01-30T04:56:51;10.70;;;6.60;;
25948;SDS011;13961;51.178;4.448;2024-01-30T04:59:16;12.57;;;7.10;;
25948;SDS011;13961;51.178;4.448;2024-01-30T05:01:42;13.57;;;7.10;;
25948;SDS011;13961;51.178;4.448;2024-01-30T05:04:09;13.95;;;7.45;;
25948;SDS011;13961;51.178;4.448;2024-01-30T05:06:36;15.20;;;7.25;;
25948;SDS011;13961;51.178;4.448;2024-01-30T05:09:02;14.68;;;7.00;;
25948;SDS011;13961;51.178;4.448;2024-01-30T05:11:29;11.52;;;6.88;;
25948;SDS011;13961;51.178;4.448;2024-01-30T05:13:55;13.60;;;6.57;;
25948;SDS011;13961;51.178;4.448;2024-01-30T05:16:21;12.90;;;7.15;;
25948;SDS011;13961;51.178;4.448;2024-01-30T05:18:47;12.18;;;7.35;;
25948;SDS011;13961;51.178;4.448;2024-01-30T05:21:13;12.80;;;7.03;;
25948;SDS011;13961;51.178;4.448;2024-01-30T05:23:38;13.70;;;7.30;;
25948;SDS011;13961;51.178;4.448;2024-01-30T05:26:05;13.10;;;7.50;;
25948;SDS011;13961;51.178;4.448;2024-01-30T05:28:30;12.85;;;6.90;;
25948;SDS011;13961;51.178;4.448;2024-01-30T05:30:56;12.60;;;7.45;;
25948;SDS011;13961;51.178;4.448;2024-01-30T05:33:22;11.77;;;6.90;;
25948;SDS011;13961;51.178;4.448;2024-01-30T05:35:48;11.75;;;7.13;;
25948;SDS011;13961;51.178;4.448;2024-01-30T05:38:13;15.35;;;7.93;;
25948;SDS011;13961;51.178;4.448;2024-01-30T05:40:41;14.35;;;7.10;;
25948;SDS011;13961;51.178;4.448;2024-01-30T05:43:06;11.40;;;7.18;;
25948;SDS011;13961;51.178;4.448;2024-01-30T05:45:33;16.60;;;7.60;;
25948;SDS011;13961;51.178;4.448;2024-01-30T05:48:00;14.18;;;7.72;;
25948;SDS011;13961;51.178;4.448;2024-01-30T05:50:26;12.82;;;7.78;;
25948;SDS011;13961;51.178;4.448;2024-01-30T05:52:52;13.82;;;7.40;;
25948;SDS011;13961;51.178;4.448;2024-01-30T05:55:18;16.15;;;7.70;;
25948;SDS011;13961;51.178;4.448;2024-01-30T05:57:43;15.25;;;7.85;;
25948;SDS011;13961;51.178;4.448;2024-01-30T06:00:09;15.43;;;8.13;;
25948;SDS011;13961;51.178;4.448;2024-01-30T06:02:35;13.10;;;6.88;;
25948;SDS011;13961;51.178;4.448;2024-01-30T06:05:01;13.50;;;7.78;;
25948;SDS011;13961;51.178;4.448;2024-01-30T06:07:26;14.73;;;7.90;;
25948;SDS011;13961;51.178;4.448;2024-01-30T06:09:52;17.98;;;8.65;;
25948;SDS011;13961;51.178;4.448;2024-01-30T06:12:18;14.20;;;7.80;;
25948;SDS011;13961;51.178;4.448;2024-01-30T06:14:44;15.35;;;7.55;;
25948;SDS011;13961;51.178;4.448;2024-01-30T06:17:09;13.27;;;8.35;;
25948;SDS011;13961;51.178;4.448;2024-01-30T06:19:36;15.80;;;7.72;;
25948;SDS011;13961;51.178;4.448;2024-01-30T06:22:03;16.25;;;7.97;;
25948;SDS011;13961;51.178;4.448;2024-01-30T06:24:29;14.50;;;7.82;;
25948;SDS011;13961;51.178;4.448;2024-01-30T06:26:55;16.55;;;7.85;;
25948;SDS011;13961;51.178;4.448;2024-01-30T06:29:21;16.70;;;7.82;;
25948;SDS011;13961;51.178;4.448;2024-01-30T06:31:46;15.63;;;7.95;;
25948;SDS011;13961;51.178;4.448;2024-01-30T06:34:12;16.27;;;7.55;;
25948;SDS011;13961;51.178;4.448;2024-01-30T06:36:38;16.85;;;7.75;;
25948;SDS011;13961;51.178;4.448;2024-01-30T06:39:04;17.45;;;8.43;;
25948;SDS011;13961;51.178;4.448;2024-01-30T06:41:30;16.52;;;7.63;;
25948;SDS011;13961;51.178;4.448;2024-01-30T06:43:56;16.80;;;7.72;;
25948;SDS011;13961;51.178;4.448;2024-01-30T06:46:22;19.13;;;7.90;;
25948;SDS011;13961;51.178;4.448;2024-01-30T06:48:47;17.02;;;8.27;;
25948;SDS011;13961;51.178;4.448;2024-01-30T06:51:13;15.60;;;7.75;;
25948;SDS011;13961;51.178;4.448;2024-01-30T06:53:39;18.65;;;8.57;;
25948;SDS011;13961;51.178;4.448;2024-01-30T06:56:05;16.98;;;7.95;;
25948;SDS011;13961;51.178;4.448;2024-01-30T06:58:31;15.50;;;8.05;;
25948;SDS011;13961;51.178;4.448;2024-01-30T07:00:57;13.30;;;8.00;;
25948;SDS011;13961;51.178;4.448;2024-01-30T07:03:23;16.30;;;7.72;;
25948;SDS011;13961;51.178;4.448;2024-01-30T07:05:49;19.92;;;8.65;;
25948;SDS011;13961;51.178;4.448;2024-01-30T07:08:18;18.00;;;8.07;;
25948;SDS011;13961;51.178;4.448;2024-01-30T07:10:43;16.55;;;7.45;;
25948;SDS011;13961;51.178;4.448;2024-01-30T07:13:10;17.45;;;7.90;;
25948;SDS011;13961;51.178;4.448;2024-01-30T07:16:14;14.82;;;7.88;;
25948;SDS011;13961;51.178;4.448;2024-01-30T07:18:40;16.75;;;8.15;;
25948;SDS011;13961;51.178;4.448;2024-01-30T07:21:06;16.98;;;7.45;;
25948;SDS011;13961;51.178;4.448;2024-01-30T07:23:32;19.50;;;8.05;;
25948;SDS011;13961;51.178;4.448;2024-01-30T07:25:59;18.25;;;8.05;;
25948;SDS011;13961;51.178;4.448;2024-01-30T07:28:24;16.10;;;7.82;;
25948;SDS011;13961;51.178;4.448;2024-01-30T07:30:50;20.33;;;8.25;;
25948;SDS011;13961;51.178;4.448;2024-01-30T07:33:16;20.13;;;9.13;;
25948;SDS011;13961;51.178;4.448;2024-01-30T07:35:41;18.98;;;8.15;;
25948;SDS011;13961;51.178;4.448;2024-01-30T07:38:07;19.90;;;8.95;;
25948;SDS011;13961;51.178;4.448;2024-01-30T07:40:33;18.17;;;8.52;;
25948;SDS011;13961;51.178;4.448;2024-01-30T07:42:58;19.17;;;8.38;;
25948;SDS011;13961;51.178;4.448;2024-01-30T07:45:24;16.63;;;8.32;;
25948;SDS011;13961;51.178;4.448;2024-01-30T07:47:50;17.13;;;8.65;;
25948;SDS011;13961;51.178;4.448;2024-01-30T07:50:17;17.23;;;8.65;;
25948;SDS011;13961;51.178;4.448;2024-01-30T07:52:43;16.20;;;7.97;;
25948;SDS011;13961;51.178;4.448;2024-01-30T07:55:09;15.32;;;8.10;;
25948;SDS011;13961;51.178;4.448;2024-01-30T07:57:34;17.25;;;7.88;;
25948;SDS011;13961;51.178;4.448;2024-01-30T08:00:00;14.63;;;7.80;;
25948;SDS011;13961;51.178;4.448;2024-01-30T08:02:28;15.02;;;7.95;;
25948;SDS011;13961;51.178;4.448;2024-01-30T08:04:53;15.30;;;7.82;;
25948;SDS011;13961;51.178;4.448;2024-01-30T08:07:19;17.38;;;8.02;;
25948;SDS011;13961;51.178;4.448;2024-01-30T08:09:47;19.83;;;8.50;;
25948;SDS011;13961;51.178;4.448;2024-01-30T08:12:12;14.68;;;7.57;;
25948;SDS011;13961;51.178;4.448;2024-01-30T08:14:38;15.73;;;8.43;;
25948;SDS011;13961;51.178;4.448;2024-01-30T08:17:06;14.68;;;8.38;;
25948;SDS011;13961;51.178;4.448;2024-01-30T08:19:32;17.45;;;7.80;;
25948;SDS011;13961;51.178;4.448;2024-01-30T08:21:58;16.10;;;7.68;;
25948;SDS011;13961;51.178;4.448;2024-01-30T08:24:24;17.08;;;7.88;;
25948;SDS011;13961;51.178;4.448;2024-01-30T08:26:49;15.98;;;7.55;;
25948;SDS011;13961;51.178;4.448;2024-01-30T08:29:15;15.30;;;7.88;;
25948;SDS011;13961;51.178;4.448;2024-01-30T08:31:40;13.70;;;7.50;;
25948;SDS011;13961;51.178;4.448;2024-01-30T08:34:06;17.30;;;7.80;;
25948;SDS011;13961;51.178;4.448;2024-01-30T08:36:32;13.70;;;7.63;;
25948;SDS011;13961;51.178;4.448;2024-01-30T08:38:57;16.95;;;8.02;;
25948;SDS011;13961;51.178;4.448;2024-01-30T08:41:23;17.42;;;8.02;;
25948;SDS011;13961;51.178;4.448;2024-01-30T08:43:49;17.35;;;7.68;;
25948;SDS011;13961;51.178;4.448;2024-01-30T08:46:17;16.17;;;8.15;;
25948;SDS011;13961;51.178;4.448;2024-01-30T08:48:43;14.25;;;7.18;;
25948;SDS011;13961;51.178;4.448;2024-01-30T08:51:09;14.80;;;7.63;;
25948;SDS011;13961;51.178;4.448;2024-01-30T08:53:35;14.75;;;7.78;;
25948;SDS011;13961;51.178;4.448;2024-01-30T08:56:02;14.45;;;8.00;;
25948;SDS011;13961;51.178;4.448;2024-01-30T08:58:28;18.08;;;8.07;;
25948;SDS011;13961;51.178;4.448;2024-01-30T09:00:53;14.05;;;7.82;;
25948;SDS011;13961;51.178;4.448;2024-01-30T09:03:19;13.88;;;7.70;;
25948;SDS011;13961;51.178;4.448;2024-01-30T09:05:45;14.43;;;7.78;;
25948;SDS011;13961;51.178;4.448;2024-01-30T09:08:10;13.40;;;8.32;;
25948;SDS011;13961;51.178;4.448;2024-01-30T09:10:36;17.77;;;7.82;;
25948;SDS011;13961;51.178;4.448;2024-01-30T09:13:02;19.98;;;8.55;;
25948;SDS011;13961;51.178;4.448;2024-01-30T09:15:28;16.45;;;8.43;;
25948;SDS011;13961;51.178;4.448;2024-01-30T09:17:53;12.85;;;7.93;;
25948;SDS011;13961;51.178;4.448;2024-01-30T09:20:19;12.30;;;8.02;;
25948;SDS011;13961;51.178;4.448;2024-01-30T09:22:47;17.23;;;8.20;;
25948;SDS011;13961;51.178;4.448;2024-01-30T09:25:13;15.57;;;7.95;;
25948;SDS011;13961;51.178;4.448;2024-01-30T09:27:38;18.23;;;8.30;;
25948;SDS011;13961;51.178;4.448;2024-01-30T09:30:05;14.75;;;8.32;;
25948;SDS011;13961;51.178;4.448;2024-01-30T09:32:31;17.85;;;8.85;;
25948;SDS011;13961;51.178;4.448;2024-01-30T09:34:57;20.48;;;8.82;;
25948;SDS011;13961;51.178;4.448;2024-01-30T09:37:22;14.90;;;8.38;;
25948;SDS011;13961;51.178;4.448;2024-01-30T09:39:48;14.60;;;8.65;;
25948;SDS011;13961;51.178;4.448;2024-01-30T09:42:18;16.95;;;9.25;;
25948;SDS011;13961;51.178;4.448;2024-01-30T09:44:51;18.40;;;9.63;;
25948;SDS011;13961;51.178;4.448;2024-01-30T09:47:18;21.60;;;9.95;;
25948;SDS011;13961;51.178;4.448;2024-01-30T09:49:44;14.63;;;9.68;;
25948;SDS011;13961;51.178;4.448;2024-01-30T09:52:10;20.55;;;10.23;;
25948;SDS011;13961;51.178;4.448;2024-01-30T09:54:36;20.80;;;9.57;;
25948;SDS011;13961;51.178;4.448;2024-01-30T09:57:03;14.32;;;9.50;;
25948;SDS011;13961;51.178;4.448;2024-01-30T09:59:30;19.75;;;10.10;;
25948;SDS011;13961;51.178;4.448;2024-01-30T10:01:56;21.13;;;10.77;;
25948;SDS011;13961;51.178;4.448;2024-01-30T10:04:22;15.00;;;9.55;;
25948;SDS011;13961;51.178;4.448;2024-01-30T10:06:47;15.60;;;10.07;;
25948;SDS011;13961;51.178;4.448;2024-01-30T10:09:14;19.85;;;10.90;;
25948;SDS011;13961;51.178;4.448;2024-01-30T10:11:40;20.45;;;11.23;;
25948;SDS011;13961;51.178;4.448;2024-01-30T10:14:05;21.40;;;11.70;;
25948;SDS011;13961;51.178;4.448;2024-01-30T10:16:31;19.77;;;11.75;;
25948;SDS011;13961;51.178;4.448;2024-01-30T10:18:56;18.38;;;10.52;;
25948;SDS011;13961;51.178;4.448;2024-01-30T10:21:22;18.90;;;11.13;;
25948;SDS011;13961;51.178;4.448;2024-01-30T10:23:49;23.10;;;10.48;;
25948;SDS011;13961;51.178;4.448;2024-01-30T10:26:16;20.42;;;10.20;;
25948;SDS011;13961;51.178;4.448;2024-01-30T10:28:42;20.92;;;9.63;;
25948;SDS011;13961;51.178;4.448;2024-01-30T10:31:08;18.73;;;9.40;;
25948;SDS011;13961;51.178;4.448;2024-01-30T10:33:34;18.92;;;8.45;;
25948;SDS011;13961;51.178;4.448;2024-01-30T10:36:03;18.65;;;8.80;;
25948;SDS011;13961;51.178;4.448;2024-01-30T10:38:31;14.82;;;8.02;;
25948;SDS011;13961;51.178;4.448;2024-01-30T10:40:58;11.75;;;5.60;;
25948;SDS011;13961;51.178;4.448;2024-01-30T10:43:31;11.50;;;5.15;;
25948;SDS011;13961;51.178;4.448;2024-01-30T10:46:21;8.73;;;3.50;;
25948;SDS011;13961;51.178;4.448;2024-01-30T10:48:57;4.25;;;1.90;;
25948;SDS011;13961;51.178;4.448;2024-01-30T10:51:27;5.78;;;1.90;;
25948;SDS011;13961;51.178;4.448;2024-01-30T10:53:53;3.88;;;1.20;;
25948;SDS011;13961;51.178;4.448;2024-01-30T10:56:23;6.05;;;1.38;;
25948;SDS011;13961;51.178;4.448;2024-01-30T10:58:50;8.13;;;1.30;;
25948;SDS011;13961;51.178;4.448;2024-01-30T11:01:20;3.20;;;1.13;;
25948;SDS011;13961;51.178;4.448;2024-01-30T11:03:53;2.10;;;0.80;;
25948;SDS011;13961;51.178;4.448;2024-01-30T11:06:23;2.17;;;1.00;;
25948;SDS011;13961;51.178;4.448;2024-01-30T11:09:02;2.50;;;0.70;;
25948;SDS011;13961;51.178;4.448;2024-01-30T11:14:26;2.97;;;0.88;;
25948;SDS011;13961;51.178;4.448;2024-01-30T11:16:57;3.15;;;0.93;;
25948;SDS011;13961;51.178;4.448;2024-01-30T11:19:24;3.65;;;0.70;;
25948;SDS011;13961;51.178;4.448;2024-01-30T11:21:52;1.92;;;0.60;;
25948;SDS011;13961;51.178;4.448;2024-01-30T11:24:22;2.65;;;0.80;;
25948;SDS011;13961;51.178;4.448;2024-01-30T11:26:49;3.17;;;0.88;;
25948;SDS011;13961;51.178;4.448;2024-01-30T11:29:24;3.15;;;0.60;;
25948;SDS011;13961;51.178;4.448;2024-01-30T11:31:53;1.35;;;0.47;;
25948;SDS011;13961;51.178;4.448;2024-01-30T11:34:20;4.13;;;0.70;;
25948;SDS011;13961;51.178;4.448;2024-01-30T11:36:56;2.25;;;0.70;;
25948;SDS011;13961;51.178;4.448;2024-01-30T11:39:31;1.85;;;0.70;;
25948;SDS011;13961;51.178;4.448;2024-01-30T11:41:57;6.03;;;0.68;;
25948;SDS011;13961;51.178;4.448;2024-01-30T11:44:24;2.28;;;0.50;;
25948;SDS011;13961;51.178;4.448;2024-01-30T11:46:51;6.28;;;0.88;;
25948;SDS011;13961;51.178;4.448;2024-01-30T11:49:17;2.55;;;0.57;;
25948;SDS011;13961;51.178;4.448;2024-01-30T11:51:47;4.40;;;0.70;;
25948;SDS011;13961;51.178;4.448;2024-01-30T11:54:14;5.22;;;0.60;;
25948;SDS011;13961;51.178;4.448;2024-01-30T11:56:41;4.45;;;0.90;;
25948;SDS011;13961;51.178;4.448;2024-01-30T11:59:08;5.50;;;0.70;;
25948;SDS011;13961;51.178;4.448;2024-01-30T12:01:33;8.50;;;0.85;;
25948;SDS011;13961;51.178;4.448;2024-01-30T12:03:59;3.28;;;0.80;;
25948;SDS011;13961;51.178;4.448;2024-01-30T12:06:25;5.82;;;0.98;;
25948;SDS011;13961;51.178;4.448;2024-01-30T12:09:01;4.43;;;0.90;;
25948;SDS011;13961;51.178;4.448;2024-01-30T12:11:33;2.78;;;0.90;;
25948;SDS011;13961;51.178;4.448;2024-01-30T12:14:09;3.63;;;0.52;;
25948;SDS011;13961;51.178;4.448;2024-01-30T12:16:35;2.60;;;0.80;;
25948;SDS011;13961;51.178;4.448;2024-01-30T12:19:00;5.10;;;0.80;;
25948;SDS011;13961;51.178;4.448;2024-01-30T12:21:27;1.55;;;0.70;;
25948;SDS011;13961;51.178;4.448;2024-01-30T12:23:53;3.63;;;0.73;;
25948;SDS011;13961;51.178;4.448;2024-01-30T12:26:19;6.72;;;0.93;;
25948;SDS011;13961;51.178;4.448;2024-01-30T12:28:48;5.80;;;0.70;;
25948;SDS011;13961;51.178;4.448;2024-01-30T12:31:17;2.67;;;0.70;;
25948;SDS011;13961;51.178;4.448;2024-01-30T12:33:43;2.38;;;0.70;;
25948;SDS011;13961;51.178;4.448;2024-01-30T12:36:08;4.45;;;1.13;;
25948;SDS011;13961;51.178;4.448;2024-01-30T12:38:34;5.72;;;0.77;;
25948;SDS011;13961;51.178;4.448;2024-01-30T12:41:00;3.53;;;0.80;;
25948;SDS011;13961;51.178;4.448;2024-01-30T12:43:25;3.03;;;0.70;;
25948;SDS011;13961;51.178;4.448;2024-01-30T12:45:54;6.38;;;1.00;;
25948;SDS011;13961;51.178;4.448;2024-01-30T12:48:20;4.18;;;0.80;;
25948;SDS011;13961;51.178;4.448;2024-01-30T12:50:46;2.80;;;0.82;;
25948;SDS011;13961;51.178;4.448;2024-01-30T12:53:11;4.82;;;1.00;;
25948;SDS011;13961;51.178;4.448;2024-01-30T12:55:38;2.65;;;0.70;;
25948;SDS011;13961;51.178;4.448;2024-01-30T12:58:03;3.30;;;0.90;;
25948;SDS011;13961;51.178;4.448;2024-01-30T13:00:29;4.50;;;0.90;;
25948;SDS011;13961;51.178;4.448;2024-01-30T13:02:55;2.97;;;1.00;;
25948;SDS011;13961;51.178;4.448;2024-01-30T13:05:20;5.93;;;0.90;;
25948;SDS011;13961;51.178;4.448;2024-01-30T13:07:47;3.30;;;0.98;;
25948;SDS011;13961;51.178;4.448;2024-01-30T13:10:12;3.95;;;1.00;;
25948;SDS011;13961;51.178;4.448;2024-01-30T13:12:38;6.78;;;1.25;;
25948;SDS011;13961;51.178;4.448;2024-01-30T13:15:04;2.60;;;1.13;;
25948;SDS011;13961;51.178;4.448;2024-01-30T13:17:30;8.82;;;1.70;;
25948;SDS011;13961;51.178;4.448;2024-01-30T13:19:58;7.53;;;1.27;;
25948;SDS011;13961;51.178;4.448;2024-01-30T13:22:23;7.90;;;1.35;;
25948;SDS011;13961;51.178;4.448;2024-01-30T13:24:49;3.15;;;1.08;;
25948;SDS011;13961;51.178;4.448;2024-01-30T13:27:15;5.25;;;1.25;;
25948;SDS011;13961;51.178;4.448;2024-01-30T13:29:41;5.30;;;1.20;;
25948;SDS011;13961;51.178;4.448;2024-01-30T13:32:07;4.38;;;1.00;;
25948;SDS011;13961;51.178;4.448;2024-01-30T13:34:33;8.50;;;1.40;;
25948;SDS011;13961;51.178;4.448;2024-01-30T13:36:58;8.13;;;1.25;;
25948;SDS011;13961;51.178;4.448;2024-01-30T13:39:24;5.13;;;1.23;;
25948;SDS011;13961;51.178;4.448;2024-01-30T13:41:50;3.90;;;1.17;;
25948;SDS011;13961;51.178;4.448;2024-01-30T13:44:16;4.60;;;1.17;;
25948;SDS011;13961;51.178;4.448;2024-01-30T13:46:42;3.70;;;1.27;;
25948;SDS011;13961;51.178;4.448;2024-01-30T13:49:08;5.90;;;1.30;;
25948;SDS011;13961;51.178;4.448;2024-01-30T13:51:34;8.98;;;1.38;;
25948;SDS011;13961;51.178;4.448;2024-01-30T13:53:59;5.60;;;1.00;;
25948;SDS011;13961;51.178;4.448;2024-01-30T13:56:25;5.50;;;1.35;;
25948;SDS011;13961;51.178;4.448;2024-01-30T13:58:51;4.95;;;1.10;;
25948;SDS011;13961;51.178;4.448;2024-01-30T14:01:17;3.55;;;0.90;;
25948;SDS011;13961;51.178;4.448;2024-01-30T14:03:43;8.70;;;0.98;;
25948;SDS011;13961;51.178;4.448;2024-01-30T14:06:10;6.90;;;1.10;;
25948;SDS011;13961;51.178;4.448;2024-01-30T14:08:36;7.25;;;1.30;;
25948;SDS011;13961;51.178;4.448;2024-01-30T14:11:02;4.75;;;1.10;;
25948;SDS011;13961;51.178;4.448;2024-01-30T14:13:28;5.50;;;1.63;;
25948;SDS011;13961;51.178;4.448;2024-01-30T14:15:54;5.57;;;1.17;;
25948;SDS011;13961;51.178;4.448;2024-01-30T14:18:21;6.10;;;1.33;;
25948;SDS011;13961;51.178;4.448;2024-01-30T14:20:46;4.72;;;1.15;;
25948;SDS011;13961;51.178;4.448;2024-01-30T14:23:12;3.67;;;1.17;;
25948;SDS011;13961;51.178;4.448;2024-01-30T14:25:37;4.68;;;1.00;;
25948;SDS011;13961;51.178;4.448;2024-01-30T14:28:03;4.10;;;1.00;;
25948;SDS011;13961;51.178;4.448;2024-01-30T14:30:29;3.85;;;1.15;;
25948;SDS011;13961;51.178;4.448;2024-01-30T14:32:55;3.83;;;0.82;;
25948;SDS011;13961;51.178;4.448;2024-01-30T14:35:21;5.82;;;1.13;;
25948;SDS011;13961;51.178;4.448;2024-01-30T14:37:46;7.40;;;1.45;;